createdAt,value
2023-03-13T00:01:36.841Z,532.7015
2023-03-13T00:06:38.531Z,458.4534
2023-03-13T00:11:40.154Z,407.2027
2023-03-13T00:16:41.862Z,389.03715
2023-03-13T00:21:43.567Z,338.15535
2023-03-13T00:26:45.212Z,268.9787
2023-03-13T00:31:46.881Z,240.7254
2023-03-13T00:36:48.529Z,229.1069
2023-03-13T00:41:50.135Z,231.191
2023-03-13T00:46:51.804Z,218.04175
2023-03-13T00:51:53.451Z,175.21875
2023-03-13T00:56:55.160Z,160.16985
2023-03-13T01:01:56.831Z,143.90395
2023-03-13T01:06:58.508Z,134.60915
2023-03-13T01:12:00.357Z,117.36585
2023-03-13T01:17:02.047Z,78.71105
2023-03-13T01:22:03.641Z,66.72365
2023-03-13T01:27:05.350Z,67.8855
2023-03-13T01:32:07.056Z,48.927
2023-03-13T01:37:08.692Z,36.9396
2023-03-13T01:42:10.340Z,27.8844
2023-03-13T01:47:12.001Z,17.2433
2023-03-13T01:52:13.706Z,8.50185
2023-03-13T01:57:15.441Z,6.9711
2023-03-13T02:02:17.087Z,3.48555
2023-03-13T02:07:18.774Z,1.16185
2023-03-13T02:12:20.391Z,0.88715
2023-03-13T02:17:22.042Z,0
2023-03-13T02:22:23.698Z,0
2023-03-13T02:27:25.303Z,0
2023-03-13T02:32:27.830Z,0
2023-03-13T02:37:29.500Z,0
2023-03-13T02:42:31.149Z,0
2023-03-13T02:47:32.797Z,0
2023-03-13T02:52:34.440Z,0
2023-03-13T02:57:36.111Z,0
2023-03-13T03:02:37.765Z,0
2023-03-13T03:07:39.366Z,0
2023-03-13T03:12:41.023Z,0
2023-03-13T03:17:42.785Z,0
2023-03-13T03:22:44.427Z,0
2023-03-13T03:27:46.053Z,0
2023-03-13T03:32:47.772Z,0
2023-03-13T03:37:49.471Z,0
2023-03-13T03:42:51.144Z,0
2023-03-13T03:47:52.819Z,0
2023-03-13T03:52:54.459Z,0
2023-03-13T03:57:56.184Z,0
2023-03-13T04:02:57.911Z,0
2023-03-13T04:07:59.688Z,0
2023-03-13T04:13:01.410Z,0
2023-03-13T04:18:03.043Z,0
2023-03-13T04:23:04.684Z,0
2023-03-13T04:28:06.383Z,0
2023-03-13T04:33:08.274Z,0
2023-03-13T04:38:09.892Z,0
2023-03-13T04:43:11.562Z,0
2023-03-13T04:48:13.242Z,0
2023-03-13T04:53:14.835Z,0
2023-03-13T04:58:16.455Z,0
2023-03-13T05:03:18.248Z,0
2023-03-13T05:08:19.911Z,0
2023-03-13T05:13:21.625Z,0
2023-03-13T05:18:23.302Z,0
2023-03-13T05:23:24.951Z,0
2023-03-13T05:28:26.617Z,0
2023-03-13T05:33:28.200Z,0
2023-03-13T05:38:29.864Z,0
2023-03-13T05:43:31.457Z,0
2023-03-13T05:48:33.071Z,0
2023-03-13T05:53:34.712Z,0
2023-03-13T05:58:36.312Z,0
2023-03-13T06:03:38.142Z,0
2023-03-13T06:08:39.958Z,0
2023-03-13T06:13:41.744Z,0
2023-03-13T06:18:43.556Z,0
2023-03-13T06:23:45.115Z,0
2023-03-13T06:28:46.697Z,0
2023-03-13T06:33:49.741Z,0
2023-03-13T06:38:52.377Z,0
2023-03-13T06:43:53.945Z,0
2023-03-13T06:48:55.548Z,0
2023-03-13T06:53:57.339Z,0
2023-03-13T06:59:00.021Z,0
2023-03-13T07:04:01.854Z,0
2023-03-13T07:09:03.551Z,0
2023-03-13T07:14:15.833Z,0
2023-03-13T07:19:18.579Z,0
2023-03-13T07:24:20.270Z,0
2023-03-13T07:29:21.909Z,0
2023-03-13T07:34:23.586Z,0
2023-03-13T07:39:25.306Z,0
2023-03-13T07:44:26.965Z,0
2023-03-13T07:49:28.691Z,0
2023-03-13T07:54:30.307Z,0
2023-03-13T07:59:31.916Z,0
2023-03-13T08:04:33.670Z,0
2023-03-13T08:09:35.438Z,0
2023-03-13T08:14:37.080Z,0
2023-03-13T08:19:38.754Z,0
2023-03-13T08:24:40.585Z,0
2023-03-13T08:29:42.178Z,0
2023-03-13T08:34:43.876Z,0
2023-03-13T08:39:45.520Z,0
2023-03-13T08:44:47.125Z,0
2023-03-13T08:49:48.740Z,0
2023-03-13T08:54:50.353Z,0
2023-03-13T08:59:51.987Z,0
2023-03-13T09:04:53.779Z,0
2023-03-13T09:09:55.482Z,0
2023-03-13T09:14:57.143Z,0
2023-03-13T09:20:00.887Z,0
2023-03-13T09:25:02.939Z,0
2023-03-13T09:30:04.550Z,0
2023-03-13T09:35:06.171Z,0
2023-03-13T09:40:07.799Z,0
2023-03-13T09:45:09.421Z,0
2023-03-13T09:50:11.044Z,0
2023-03-13T09:55:12.662Z,0
2023-03-13T10:00:14.315Z,0
2023-03-13T10:05:15.996Z,0
2023-03-13T10:10:17.859Z,0
2023-03-13T10:15:19.524Z,0
2023-03-13T10:20:21.342Z,0
2023-03-13T10:25:23.042Z,0
2023-03-13T10:30:24.779Z,0
2023-03-13T10:35:26.384Z,0
2023-03-13T10:40:28.098Z,0
2023-03-13T10:45:29.866Z,0
2023-03-13T10:50:31.498Z,0
2023-03-13T10:55:33.137Z,0
2023-03-13T11:00:34.822Z,0
2023-03-13T11:05:36.342Z,0
2023-03-13T11:10:38.116Z,0
2023-03-13T11:15:39.743Z,0
2023-03-13T11:20:41.399Z,0
2023-03-13T11:25:43.016Z,0
2023-03-13T11:30:44.640Z,0
2023-03-13T11:35:46.454Z,0
2023-03-13T11:40:48.089Z,0
2023-03-13T11:45:49.809Z,0
2023-03-13T11:50:51.553Z,0
2023-03-13T11:55:53.150Z,0
2023-03-13T12:00:54.798Z,0
2023-03-13T12:05:56.427Z,0
2023-03-13T12:10:58.105Z,0
2023-03-13T12:15:59.741Z,0
2023-03-13T12:21:01.409Z,0
2023-03-13T12:26:03.088Z,0
2023-03-13T12:31:04.852Z,0
2023-03-13T12:36:06.565Z,0
2023-03-13T12:41:08.265Z,0
2023-03-13T12:46:10.023Z,0
2023-03-13T12:51:11.667Z,0
2023-03-13T12:56:13.327Z,0
2023-03-13T13:01:14.992Z,0
2023-03-13T13:06:16.727Z,0
2023-03-13T13:11:18.367Z,0
2023-03-13T13:16:20.025Z,0
2023-03-13T13:21:21.805Z,0
2023-03-13T13:26:23.418Z,0
2023-03-13T13:31:25.157Z,0
2023-03-13T13:36:26.814Z,0
2023-03-13T13:41:28.517Z,0
2023-03-13T13:46:30.263Z,0
2023-03-13T13:51:32.105Z,0.88715
2023-03-13T13:56:33.861Z,1.16185
2023-03-13T14:01:35.675Z,2.32725
2023-03-13T14:06:37.487Z,3.48555
2023-03-13T14:11:39.382Z,7.9485
2023-03-13T14:16:41.217Z,10.45665
2023-03-13T14:21:42.851Z,13.14925
2023-03-13T14:26:44.486Z,19.9359
2023-03-13T14:31:46.290Z,22.6285
2023-03-13T14:36:48.046Z,29.41515
2023-03-13T14:41:49.789Z,24.7126
2023-03-13T14:46:51.433Z,35.3537
2023-03-13T14:51:53.177Z,60.1766
2023-03-13T14:56:54.849Z,63.66215
2023-03-13T15:01:56.467Z,76.4425
2023-03-13T15:06:58.111Z,86.844
2023-03-13T15:11:59.824Z,107.0195
2023-03-13T15:17:01.443Z,101.7636
2023-03-13T15:22:03.049Z,113.19765
2023-03-13T15:27:04.807Z,125.55395
2023-03-13T15:32:06.522Z,128.85505
2023-03-13T15:37:08.200Z,133.0784
2023-03-13T15:42:09.867Z,159.06315
2023-03-13T15:47:11.494Z,184.01535
2023-03-13T15:52:13.194Z,220.95495
2023-03-13T15:57:14.807Z,230.4342
2023-03-13T16:02:16.501Z,229.64125
2023-03-13T16:07:18.169Z,257.15675
2023-03-13T16:12:19.826Z,244.3764
2023-03-13T16:17:21.452Z,243.21455
2023-03-13T16:22:23.111Z,204.1357
2023-03-13T16:27:24.763Z,191.7794
2023-03-13T16:32:26.469Z,210.55345
2023-03-13T16:37:28.242Z,283.2708
2023-03-13T16:42:29.925Z,308.9608
2023-03-13T16:47:31.587Z,341.253
2023-03-13T16:52:33.475Z,369.1374
2023-03-13T16:57:35.085Z,332.8063
2023-03-13T17:02:36.766Z,360.6907
2023-03-13T17:07:38.426Z,341.91665
2023-03-13T17:12:40.077Z,324.4889
2023-03-13T17:17:41.682Z,390.2903
2023-03-13T17:22:43.321Z,397.0218
2023-03-13T17:27:44.997Z,430.23625
2023-03-13T17:32:46.930Z,520.1969
2023-03-13T17:37:48.630Z,598.7235
2023-03-13T17:42:50.555Z,604.77235
2023-03-13T17:47:52.502Z,652.35305
2023-03-13T17:52:54.133Z,633.39455
2023-03-13T17:57:55.811Z,873.14255
2023-03-13T18:02:57.472Z,1023.61255
2023-03-13T18:07:59.246Z,686.12085
2023-03-13T18:13:01.016Z,497.99245
2023-03-13T18:18:02.689Z,608.6268
2023-03-13T18:23:04.372Z,604.77235
2023-03-13T18:28:06.095Z,613.2742
2023-03-13T18:33:07.743Z,658.2916
2023-03-13T18:38:09.625Z,736.39415
2023-03-13T18:43:11.266Z,654.56645
2023-03-13T18:48:12.899Z,734.67895
2023-03-13T18:53:14.562Z,632.2327
2023-03-13T18:58:16.205Z,552.78385
2023-03-13T19:03:17.901Z,463.8006
2023-03-13T19:08:19.540Z,581.5905
2023-03-13T19:13:21.200Z,583.72975
2023-03-13T19:18:22.913Z,573.45755
2023-03-13T19:23:24.504Z,641.95155
2023-03-13T19:28:26.154Z,505.3876
2023-03-13T19:33:27.778Z,511.19685
2023-03-13T19:38:29.462Z,414.8736
2023-03-13T19:43:31.323Z,488.56835
2023-03-13T19:48:32.981Z,536.51795
2023-03-13T19:53:34.570Z,670.7582
2023-03-13T19:58:36.309Z,636.32675
2023-03-13T20:03:37.941Z,658.033
2023-03-13T20:08:39.711Z,716.07035
2023-03-13T20:13:41.350Z,702.73665
2023-03-13T20:18:43.118Z,654.7319
2023-03-13T20:23:44.732Z,522.20685
2023-03-13T20:28:46.436Z,596.879
2023-03-13T20:33:48.039Z,662.01675
2023-03-13T20:38:49.726Z,749.22965
2023-03-13T20:43:51.516Z,754.37525
2023-03-13T20:48:53.127Z,708.25115
2023-03-13T20:53:54.834Z,768.0037
2023-03-13T20:58:56.469Z,914.3055
2023-03-13T21:03:58.158Z,1409.16415
2023-03-13T21:08:59.844Z,813.6296
2023-03-13T21:14:01.470Z,552.839
2023-03-13T21:19:03.196Z,358.367
2023-03-13T21:24:04.963Z,334.57665
2023-03-13T21:29:06.576Z,220.5119
2023-03-13T21:34:08.327Z,328.2692
2023-03-13T21:39:10.038Z,314.327
2023-03-13T21:44:11.706Z,316.46625
2023-03-13T21:49:13.299Z,363.254
2023-03-13T21:54:14.984Z,457.8069
2023-03-13T21:59:16.787Z,442.5184
2023-03-13T22:04:18.496Z,450.78065
2023-03-13T22:09:20.187Z,421.7344
2023-03-13T22:14:21.890Z,400.26775
2023-03-13T22:19:23.556Z,379.35445
2023-03-13T22:24:25.326Z,418.5626
2023-03-13T22:29:27.220Z,432.5048
2023-03-13T22:34:29.748Z,405.89255
2023-03-13T22:39:31.408Z,344.1852
2023-03-13T22:44:33.081Z,365.4674
2023-03-13T22:49:34.744Z,454.7644
2023-03-13T22:54:36.429Z,398.4974
2023-03-13T22:59:38.026Z,341.8615
2023-03-13T23:04:39.711Z,391.71075
2023-03-13T23:09:41.373Z,373.9141
2023-03-13T23:14:43.022Z,348.9619
2023-03-13T23:19:44.874Z,359.2341
2023-03-13T23:24:46.499Z,323.2719
2023-03-13T23:29:48.081Z,264.01755
2023-03-13T23:34:49.880Z,316.61455
2023-03-13T23:39:51.518Z,329.5242
2023-03-13T23:44:53.213Z,254.6486
2023-03-13T23:49:55.106Z,249.57715
2023-03-13T23:54:56.748Z,221.1394
2023-03-13T23:59:58.500Z,144.88135
